Paseo de San Lorenzo, Puerto Rico
Current Conditions -  °F | °C
As of 11:56 PM on Monday 22 Dec 2014 (Local Time) from TJSJ Reporting Station
Broken Clouds Broken Clouds  
Wind Chill: 77°   Ceiling: 6500
Heat Index: 78°   Visibility: 10mi
Dew Point: 74°   Wind: 0mph
Humidity: 90%   Direction: NA
Pressure: 30.03"   Gusts: NA
Location:  18.1909°N, 65.9618°W
Report Text: TJSJ 230356Z 00000KT 10SM FEW019 SCT033 BKN065 25/23 A3003 RMK AO2 RAB08E19 SLP168 P0000 T02500233 402940228
Loading
Personal Weather Stations






























Interactive Weather Map New forecast layout! Learn more

10-Day Weather Forecast

Advertisements
Track Severe Weather on mobile